Time;durP1;ratioP1;P1;durP2;ratioP2;P2;SDS_P1;SDS_P2;PMS_P1;PMS_P2;Temp;Humidity;BMP_temperature;BMP_pressure;BME280_temperature;BME280_humidity;BME280_pressure;Samples;Min_cycle;Max_cycle;Signal;HPM_P1;HPM_P2
2023/10/28 00:02:53;;;;;;;9.98;3.22;;;9.30;99.90;;;;;;7340006;32;20122;-55
2023/10/28 00:06:55;;;;;;;8.32;2.58;;;9.40;99.90;;;;;;7338958;32;20581;-56
2023/10/28 00:10:57;;;;;;;11.70;2.97;;;9.40;99.90;;;;;;7345010;32;20579;-56
2023/10/28 00:14:59;;;;;;;8.00;2.60;;;9.40;99.90;;;;;;7348788;32;20099;-57
2023/10/28 00:19:03;;;;;;;9.70;2.28;;;9.40;99.90;;;;;;7344938;32;20092;-55
2023/10/28 00:23:06;;;;;;;6.87;2.28;;;9.40;99.90;;;;;;7353035;32;20548;-55
2023/10/28 00:27:10;;;;;;;13.90;2.33;;;9.40;99.90;;;;;;7354071;32;20130;-56
2023/10/28 00:31:19;;;;;;;5.97;2.10;;;9.50;99.90;;;;;;7355152;32;20133;-56
2023/10/28 00:35:21;;;;;;;9.07;2.62;;;9.40;99.90;;;;;;7345118;32;20192;-57
2023/10/28 00:39:23;;;;;;;7.40;2.30;;;9.40;99.90;;;;;;7343821;32;20206;-56
2023/10/28 00:43:25;;;;;;;10.23;2.50;;;9.50;99.90;;;;;;7352889;32;20129;-56
2023/10/28 00:47:27;;;;;;;7.10;2.62;;;9.50;99.90;;;;;;7343695;32;20217;-56
2023/10/28 00:51:29;;;;;;;7.62;2.70;;;9.60;99.90;;;;;;7346813;32;20112;-57
2023/10/28 00:55:32;;;;;;;9.57;2.50;;;9.60;99.90;;;;;;7347592;32;20119;-56
2023/10/28 00:59:34;;;;;;;5.50;2.40;;;9.60;99.90;;;;;;7340965;32;20142;-56
2023/10/28 01:03:36;;;;;;;5.75;2.80;;;9.70;99.90;;;;;;7348089;32;20115;-56
2023/10/28 01:07:39;;;;;;;4.90;2.70;;;9.70;99.90;;;;;;7346184;32;20213;-56
2023/10/28 01:11:41;;;;;;;8.77;2.92;;;9.70;99.90;;;;;;7352319;32;20103;-56
2023/10/28 01:15:43;;;;;;;5.93;2.60;;;9.70;99.90;;;;;;7338817;32;20469;-56
2023/10/28 01:19:45;;;;;;;12.27;3.00;;;9.80;99.90;;;;;;7341784;32;20654;-56
2023/10/28 01:23:47;;;;;;;6.97;2.53;;;9.80;99.90;;;;;;7352613;32;20280;-56
2023/10/28 01:27:49;;;;;;;7.75;3.20;;;9.80;99.90;;;;;;7352522;32;20249;-56
2023/10/28 01:31:51;;;;;;;9.52;2.97;;;9.80;99.90;;;;;;7341617;32;20165;-55
2023/10/28 01:35:53;;;;;;;7.07;2.83;;;9.90;99.90;;;;;;7344495;32;20505;-54
2023/10/28 01:39:56;;;;;;;12.82;2.90;;;9.90;99.90;;;;;;7345762;32;20524;-54
2023/10/28 01:43:58;;;;;;;12.82;3.17;;;9.80;99.90;;;;;;7343847;32;20122;-54
2023/10/28 01:48:00;;;;;;;6.75;2.47;;;9.90;99.90;;;;;;7346273;32;20524;-55
2023/10/28 01:52:03;;;;;;;9.82;2.87;;;9.80;99.90;;;;;;7341668;32;20590;-55
2023/10/28 01:56:05;;;;;;;6.05;2.47;;;9.90;99.90;;;;;;7341588;32;20166;-53
2023/10/28 02:00:12;;;;;;;7.72;2.35;;;9.90;99.90;;;;;;7343708;32;20228;-54
2023/10/28 02:04:14;;;;;;;7.60;2.20;;;9.90;99.90;;;;;;7349228;32;20111;-54
2023/10/28 02:08:16;;;;;;;5.45;2.40;;;9.90;99.90;;;;;;7348659;32;20399;-54
2023/10/28 02:12:17;;;;;;;6.03;2.53;;;9.80;99.90;;;;;;7342691;32;20205;-54
2023/10/28 02:16:20;;;;;;;6.15;2.20;;;9.90;99.90;;;;;;7342662;32;20142;-55
2023/10/28 02:20:21;;;;;;;7.15;2.40;;;9.90;99.90;;;;;;7339947;32;20131;-54
2023/10/28 02:24:23;;;;;;;7.75;2.22;;;9.90;99.90;;;;;;7347108;32;20100;-54
2023/10/28 02:28:25;;;;;;;7.90;2.42;;;9.90;99.90;;;;;;7347796;32;20223;-56
2023/10/28 02:32:27;;;;;;;7.68;2.53;;;9.90;99.90;;;;;;7356049;32;20111;-54
2023/10/28 02:36:29;;;;;;;4.57;2.20;;;9.90;99.90;;;;;;7348383;32;20583;-57
2023/10/28 02:40:31;;;;;;;4.57;1.92;;;9.80;99.90;;;;;;7353448;32;20111;-55
2023/10/28 02:44:33;;;;;;;8.80;2.72;;;9.90;99.90;;;;;;7348981;32;20499;-55
2023/10/28 02:48:35;;;;;;;3.95;1.90;;;10.00;99.90;;;;;;7352621;32;20823;-55
2023/10/28 02:52:36;;;;;;;6.60;2.10;;;9.90;99.90;;;;;;7348019;32;20446;-55
2023/10/28 02:56:38;;;;;;;7.47;1.98;;;9.90;99.90;;;;;;7351530;32;20185;-57
2023/10/28 03:00:40;;;;;;;8.30;2.28;;;10.00;99.90;;;;;;7344652;32;20149;-56
2023/10/28 03:04:42;;;;;;;7.12;2.72;;;10.00;99.90;;;;;;7348666;32;20127;-55
2023/10/28 03:08:44;;;;;;;5.62;2.22;;;10.00;99.90;;;;;;7346307;32;20553;-55
2023/10/28 03:12:47;;;;;;;6.20;3.08;;;10.00;99.90;;;;;;7340825;32;20153;-55
2023/10/28 03:16:48;;;;;;;8.57;2.80;;;10.00;99.90;;;;;;7353771;32;20612;-55
2023/10/28 03:20:51;;;;;;;5.43;3.00;;;10.00;99.90;;;;;;7347118;32;20261;-56
2023/10/28 03:24:53;;;;;;;7.28;3.00;;;10.00;99.90;;;;;;7353622;32;20166;-54
2023/10/28 03:28:55;;;;;;;7.28;2.97;;;9.90;99.90;;;;;;7343607;32;20479;-55
2023/10/28 03:32:57;;;;;;;5.55;3.22;;;9.90;99.90;;;;;;7339105;32;20260;-54
2023/10/28 03:36:59;;;;;;;6.82;3.08;;;9.80;99.90;;;;;;7348877;32;20150;-56
2023/10/28 03:41:11;;;;;;;5.22;2.97;;;9.80;99.90;;;;;;7346661;32;20547;-56
2023/10/28 03:45:14;;;;;;;7.10;3.92;;;9.70;99.90;;;;;;7345407;32;20116;-57
2023/10/28 03:49:16;;;;;;;8.60;3.87;;;9.60;99.90;;;;;;7343365;32;20654;-54
2023/10/28 03:53:18;;;;;;;8.07;4.07;;;9.50;99.90;;;;;;7344314;32;20123;-55
2023/10/28 03:57:20;;;;;;;7.95;3.92;;;9.50;99.90;;;;;;7351472;32;20138;-55
2023/10/28 04:01:23;;;;;;;7.70;4.62;;;9.50;99.90;;;;;;7346687;32;20233;-55
2023/10/28 04:05:25;;;;;;;8.15;4.50;;;9.50;99.90;;;;;;7350985;32;20107;-54
2023/10/28 04:09:26;;;;;;;13.25;4.55;;;9.60;99.90;;;;;;7345254;32;20111;-54
2023/10/28 04:13:28;;;;;;;10.38;4.78;;;9.50;99.90;;;;;;7349661;32;20107;-55
2023/10/28 04:17:31;;;;;;;9.00;4.47;;;9.50;99.90;;;;;;7345607;32;20115;-54
2023/10/28 04:21:33;;;;;;;6.28;3.47;;;9.40;99.90;;;;;;7342604;32;20531;-54
2023/10/28 04:25:35;;;;;;;10.32;3.90;;;9.30;99.90;;;;;;7354483;32;20166;-54
2023/10/28 04:29:37;;;;;;;5.57;2.75;;;9.20;99.90;;;;;;7355278;32;20111;-54
2023/10/28 04:33:39;;;;;;;4.72;2.55;;;9.10;99.90;;;;;;7348350;32;20119;-55
2023/10/28 04:37:40;;;;;;;4.90;1.90;;;9.00;99.90;;;;;;7353882;32;20107;-55
2023/10/28 04:41:42;;;;;;;6.65;2.20;;;9.10;99.90;;;;;;7342784;32;20112;-55
2023/10/28 04:45:44;;;;;;;5.50;1.90;;;9.00;99.90;;;;;;7343950;32;20525;-55
2023/10/28 04:49:46;;;;;;;5.95;1.85;;;9.00;99.90;;;;;;7348813;32;20108;-57
2023/10/28 04:53:48;;;;;;;4.47;1.87;;;8.90;99.90;;;;;;7352595;32;20279;-56
2023/10/28 04:57:50;;;;;;;4.30;1.90;;;9.00;99.90;;;;;;7346933;32;20354;-56
2023/10/28 05:01:53;;;;;;;3.22;1.58;;;8.90;99.90;;;;;;7342942;32;20556;-54
2023/10/28 05:05:54;;;;;;;5.55;1.70;;;8.90;99.90;;;;;;7341422;32;20544;-54
2023/10/28 05:09:56;;;;;;;7.47;1.70;;;8.90;99.90;;;;;;7333857;32;20686;-55
2023/10/28 05:13:58;;;;;;;7.07;2.10;;;9.00;99.90;;;;;;7336981;32;20186;-55
2023/10/28 05:18:00;;;;;;;6.18;2.10;;;9.10;99.90;;;;;;7344984;32;20119;-55
2023/10/28 05:22:03;;;;;;;4.37;2.10;;;9.10;99.90;;;;;;7335032;32;20503;-55
2023/10/28 05:26:06;;;;;;;4.15;2.08;;;9.10;99.90;;;;;;7337330;32;20217;-55
2023/10/28 05:30:11;;;;;;;5.97;2.20;;;9.10;99.90;;;;;;7340481;32;20250;-55
2023/10/28 05:34:12;;;;;;;5.07;2.50;;;9.30;99.90;;;;;;7346716;32;20229;-54
2023/10/28 05:38:14;;;;;;;3.75;2.22;;;9.20;99.90;;;;;;7332696;32;20885;-55
2023/10/28 05:42:17;;;;;;;7.05;2.62;;;9.30;99.90;;;;;;7341149;32;20281;-55
2023/10/28 05:46:22;;;;;;;4.75;2.60;;;9.40;99.90;;;;;;7344462;32;20273;-55
2023/10/28 05:50:24;;;;;;;5.00;2.55;;;9.40;99.90;;;;;;7346400;32;20108;-55
2023/10/28 05:54:26;;;;;;;5.03;2.53;;;9.50;99.90;;;;;;7344630;32;20170;-54
2023/10/28 05:58:28;;;;;;;5.93;2.40;;;9.60;99.90;;;;;;7339686;32;20138;-55
2023/10/28 06:02:29;;;;;;;2.67;2.00;;;9.60;99.90;;;;;;7343039;32;20190;-55
2023/10/28 06:06:31;;;;;;;3.80;2.00;;;9.70;99.90;;;;;;7344649;32;20512;-55
2023/10/28 06:10:34;;;;;;;3.47;2.00;;;9.70;99.90;;;;;;7344230;32;20173;-55
2023/10/28 06:14:36;;;;;;;3.40;1.90;;;9.70;99.90;;;;;;7341192;32;20581;-55
2023/10/28 06:18:38;;;;;;;5.55;1.80;;;9.80;99.90;;;;;;7348607;32;20667;-55
2023/10/28 06:22:42;;;;;;;2.03;1.60;;;9.80;99.90;;;;;;7342526;32;20362;-55
2023/10/28 06:26:45;;;;;;;4.65;2.42;;;9.80;99.90;;;;;;7348174;32;20111;-54
2023/10/28 06:30:48;;;;;;;3.85;1.80;;;9.80;99.90;;;;;;7337223;32;20149;-54
2023/10/28 06:34:50;;;;;;;2.90;1.60;;;9.80;99.90;;;;;;7350675;32;20229;-56
2023/10/28 06:38:55;;;;;;;2.97;1.40;;;9.80;99.90;;;;;;7350653;32;20107;-55
2023/10/28 06:42:56;;;;;;;4.35;1.60;;;9.90;99.90;;;;;;7347495;32;20103;-55
2023/10/28 06:46:58;;;;;;;5.35;1.23;;;9.80;99.90;;;;;;7348369;32;20270;-57
2023/10/28 06:51:00;;;;;;;2.85;1.25;;;9.90;99.90;;;;;;7347865;32;20134;-56
2023/10/28 06:55:02;;;;;;;4.72;0.93;;;10.00;99.90;;;;;;7343430;32;20178;-56
2023/10/28 06:59:04;;;;;;;3.78;1.20;;;10.00;99.90;;;;;;7342309;32;20222;-56
2023/10/28 07:03:06;;;;;;;3.35;1.35;;;10.00;99.90;;;;;;7349031;32;20549;-56
2023/10/28 07:07:12;;;;;;;1.85;0.90;;;9.90;99.90;;;;;;7346698;32;20203;-56
2023/10/28 07:11:14;;;;;;;2.65;1.10;;;10.00;99.90;;;;;;7350149;32;20139;-58
2023/10/28 07:15:17;;;;;;;2.08;1.00;;;10.10;99.90;;;;;;7343738;32;20827;-57
2023/10/28 07:19:19;;;;;;;2.53;1.00;;;10.20;99.90;;;;;;7349801;32;20221;-58
2023/10/28 07:23:21;;;;;;;4.80;1.12;;;10.20;99.90;;;;;;7345294;32;20672;-57
2023/10/28 07:27:23;;;;;;;3.97;0.93;;;10.30;99.90;;;;;;7353248;32;20171;-56
2023/10/28 07:31:28;;;;;;;2.92;0.93;;;10.30;99.90;;;;;;7337245;32;20104;-56
2023/10/28 07:35:29;;;;;;;2.10;0.82;;;10.40;99.90;;;;;;7347849;32;20298;-57
2023/10/28 07:39:31;;;;;;;1.98;0.80;;;10.50;99.90;;;;;;7349299;32;20282;-57
2023/10/28 07:43:33;;;;;;;2.03;0.70;;;10.50;99.90;;;;;;7352952;32;20241;-56
2023/10/28 07:47:35;;;;;;;2.15;0.82;;;10.50;99.90;;;;;;7341124;32;20227;-62
2023/10/28 07:51:37;;;;;;;3.58;0.68;;;10.50;99.90;;;;;;7343220;32;20096;-56
2023/10/28 07:55:38;;;;;;;1.83;0.75;;;10.60;99.90;;;;;;7347843;32;20228;-57
2023/10/28 07:59:40;;;;;;;2.35;0.80;;;10.70;99.90;;;;;;7342302;32;20631;-57
2023/10/28 08:03:45;;;;;;;1.80;0.60;;;10.70;99.90;;;;;;7342814;32;20111;-56
2023/10/28 08:07:48;;;;;;;2.37;0.60;;;10.70;99.90;;;;;;7344769;32;20107;-56
2023/10/28 08:11:50;;;;;;;2.25;0.70;;;10.80;99.90;;;;;;7335607;32;20115;-57
2023/10/28 08:15:52;;;;;;;1.98;0.60;;;10.80;99.90;;;;;;7347302;32;20193;-56
2023/10/28 08:19:54;;;;;;;5.43;0.62;;;10.90;99.90;;;;;;7345020;32;20107;-56
2023/10/28 08:23:57;;;;;;;1.02;0.50;;;10.90;99.90;;;;;;7345027;32;20134;-56
2023/10/28 08:27:59;;;;;;;2.08;0.77;;;10.80;99.90;;;;;;7348031;32;20518;-56
2023/10/28 08:32:00;;;;;;;1.92;0.70;;;10.90;99.90;;;;;;7343330;32;20903;-57
2023/10/28 08:36:03;;;;;;;2.53;0.60;;;10.80;99.90;;;;;;7352138;32;20108;-57
2023/10/28 08:40:10;;;;;;;4.07;0.85;;;10.90;99.90;;;;;;7338941;32;20108;-57
2023/10/28 08:44:14;;;;;;;3.15;0.70;;;10.90;99.90;;;;;;7348690;32;20438;-57
2023/10/28 08:48:20;;;;;;;4.03;0.80;;;10.90;99.90;;;;;;7347987;32;20395;-56
2023/10/28 08:52:24;;;;;;;3.27;0.90;;;11.00;99.90;;;;;;7346362;32;20134;-56
2023/10/28 08:56:28;;;;;;;3.00;0.75;;;11.10;99.90;;;;;;7345988;32;20162;-56
2023/10/28 09:00:30;;;;;;;2.53;0.68;;;11.20;99.90;;;;;;7335983;32;20192;-56
2023/10/28 09:04:32;;;;;;;2.20;0.60;;;11.30;99.90;;;;;;7345644;32;20822;-56
2023/10/28 09:08:34;;;;;;;1.37;0.60;;;11.30;99.90;;;;;;7343049;32;20295;-55
2023/10/28 09:12:36;;;;;;;1.95;0.80;;;11.40;99.90;;;;;;7336788;32;20096;-55
2023/10/28 09:16:38;;;;;;;3.08;0.75;;;11.50;99.90;;;;;;7346970;32;20119;-56
2023/10/28 09:20:41;;;;;;;4.32;0.80;;;11.50;99.90;;;;;;7341819;32;20198;-56
2023/10/28 09:24:47;;;;;;;6.03;0.82;;;11.40;99.90;;;;;;7350451;32;20103;-56
2023/10/28 09:28:52;;;;;;;4.05;0.95;;;11.50;99.90;;;;;;7345814;32;20130;-56
2023/10/28 09:32:55;;;;;;;2.87;1.10;;;11.50;99.90;;;;;;7347963;32;20131;-57
2023/10/28 09:36:57;;;;;;;4.68;0.88;;;11.50;99.90;;;;;;7347642;32;20186;-57
2023/10/28 09:41:01;;;;;;;2.03;0.65;;;11.60;99.90;;;;;;7353320;32;20197;-56
2023/10/28 09:45:05;;;;;;;1.87;0.80;;;11.60;99.90;;;;;;7341957;32;20107;-57
2023/10/28 09:49:09;;;;;;;5.12;1.12;;;11.70;99.90;;;;;;7344059;32;20241;-54
2023/10/28 09:53:16;;;;;;;4.15;1.10;;;11.80;99.90;;;;;;7353876;32;20747;-55
2023/10/28 09:57:18;;;;;;;3.03;0.88;;;11.90;99.90;;;;;;7347019;32;20162;-54
2023/10/28 10:01:36;;;;;;;3.80;0.90;;;12.10;99.90;;;;;;7356461;32;20224;-56
2023/10/28 10:05:44;;;;;;;3.03;0.77;;;12.20;99.90;;;;;;7347342;32;20123;-55
2023/10/28 10:09:49;;;;;;;3.17;0.80;;;12.20;99.90;;;;;;7353401;32;20262;-55
2023/10/28 10:13:52;;;;;;;3.30;0.75;;;12.20;99.90;;;;;;7350754;32;20557;-56
2023/10/28 10:18:10;;;;;;;1.02;0.45;;;12.20;99.90;;;;;;7348627;32;20108;-56
2023/10/28 10:22:15;;;;;;;1.12;0.50;;;12.30;99.90;;;;;;7340133;32;20655;-55
2023/10/28 10:26:25;;;;;;;2.45;0.80;;;12.30;99.90;;;;;;7350585;32;20133;-54
2023/10/28 10:30:33;;;;;;;3.70;0.80;;;12.50;99.90;;;;;;7348149;32;20129;-55
2023/10/28 10:34:39;;;;;;;2.35;0.80;;;12.60;99.90;;;;;;7350985;32;20107;-57
2023/10/28 10:38:41;;;;;;;1.40;0.68;;;12.70;99.90;;;;;;7351684;32;20130;-55
2023/10/28 10:42:44;;;;;;;3.55;0.75;;;12.80;99.90;;;;;;7353134;32;20130;-55
2023/10/28 10:46:47;;;;;;;2.65;0.77;;;12.80;99.90;;;;;;7346845;32;20217;-55
2023/10/28 10:50:49;;;;;;;1.37;0.73;;;13.00;99.90;;;;;;7350426;32;20193;-56
2023/10/28 10:54:51;;;;;;;4.97;1.10;;;12.90;99.90;;;;;;7357216;32;20304;-57
2023/10/28 10:58:53;;;;;;;2.33;0.90;;;13.10;99.90;;;;;;7342779;32;20242;-56
2023/10/28 11:02:58;;;;;;;2.50;0.90;;;13.40;99.90;;;;;;7341954;32;20107;-57
2023/10/28 11:07:02;;;;;;;1.37;0.62;;;13.70;99.90;;;;;;7335111;32;20107;-56
2023/10/28 11:11:04;;;;;;;5.40;0.70;;;14.00;99.90;;;;;;7346629;32;20108;-57
2023/10/28 11:15:08;;;;;;;5.65;1.00;;;13.90;99.90;;;;;;7345182;32;20112;-55
2023/10/28 11:19:11;;;;;;;1.50;0.60;;;13.80;99.90;;;;;;7348288;32;20198;-57
2023/10/28 11:23:16;;;;;;;4.30;0.85;;;13.80;99.90;;;;;;7342898;32;20212;-57
2023/10/28 11:27:19;;;;;;;5.22;0.70;;;13.60;99.90;;;;;;7340389;32;20662;-57
2023/10/28 11:31:21;;;;;;;2.15;0.62;;;13.70;99.90;;;;;;7339563;32;20481;-57
2023/10/28 11:35:24;;;;;;;3.10;0.90;;;13.70;99.90;;;;;;7345654;32;21354;-57
2023/10/28 11:39:30;;;;;;;7.25;1.20;;;13.60;99.90;;;;;;7337570;32;20114;-57
2023/10/28 11:43:35;;;;;;;7.05;1.12;;;13.60;99.90;;;;;;7353706;32;20139;-56
2023/10/28 11:47:37;;;;;;;4.32;1.40;;;13.50;99.90;;;;;;7346943;32;20138;-57
2023/10/28 11:51:39;;;;;;;10.18;1.30;;;13.50;99.90;;;;;;7345403;32;20138;-57
2023/10/28 11:55:41;;;;;;;7.82;1.60;;;13.70;99.90;;;;;;7342364;32;20103;-58
2023/10/28 11:59:42;;;;;;;9.38;1.52;;;13.80;99.90;;;;;;7352759;32;20135;-58
2023/10/28 12:03:45;;;;;;;11.60;1.65;;;13.90;99.90;;;;;;7359346;32;20107;-58
2023/10/28 12:07:48;;;;;;;11.10;1.33;;;14.00;99.90;;;;;;7347971;32;20923;-58
2023/10/28 12:11:51;;;;;;;10.32;1.52;;;14.10;99.90;;;;;;7347531;32;20394;-57
2023/10/28 12:15:53;;;;;;;11.15;1.50;;;14.30;99.90;;;;;;7355746;32;20103;-58
2023/10/28 12:19:55;;;;;;;5.78;1.12;;;14.30;99.90;;;;;;7346930;32;20582;-58
2023/10/28 12:23:57;;;;;;;8.55;1.35;;;14.30;99.90;;;;;;7349926;32;20107;-57
2023/10/28 12:27:58;;;;;;;6.40;1.50;;;14.50;99.90;;;;;;7348636;32;20166;-57
2023/10/28 12:32:00;;;;;;;9.60;1.55;;;14.50;99.90;;;;;;7343597;32;20199;-58
2023/10/28 12:36:02;;;;;;;6.32;1.52;;;14.50;99.90;;;;;;7349381;32;20249;-58
2023/10/28 12:40:05;;;;;;;13.85;1.70;;;14.40;99.90;;;;;;7343821;32;20136;-58
2023/10/28 12:44:07;;;;;;;9.18;1.83;;;14.40;99.90;;;;;;7348562;32;20111;-57
2023/10/28 12:48:09;;;;;;;7.22;1.25;;;14.50;99.90;;;;;;7344367;32;20216;-58
2023/10/28 12:52:11;;;;;;;12.18;1.80;;;14.40;99.90;;;;;;7347536;32;20470;-57
2023/10/28 12:56:13;;;;;;;9.65;1.70;;;14.50;99.90;;;;;;7346910;32;20131;-57
2023/10/28 13:00:15;;;;;;;7.45;1.40;;;14.50;99.90;;;;;;7346334;32;20125;-57
2023/10/28 13:04:17;;;;;;;10.35;1.80;;;14.40;99.90;;;;;;7343802;32;20527;-57
2023/10/28 13:08:23;;;;;;;7.87;1.67;;;14.50;99.90;;;;;;7340806;32;20131;-57
2023/10/28 13:12:25;;;;;;;8.10;1.48;;;14.50;99.90;;;;;;7342248;32;20141;-57
2023/10/28 13:16:27;;;;;;;5.20;1.23;;;14.50;99.90;;;;;;7338886;32;20200;-57
2023/10/28 13:20:29;;;;;;;7.55;1.80;;;14.30;99.90;;;;;;7355027;32;20130;-57
2023/10/28 13:24:31;;;;;;;8.63;1.80;;;14.30;99.90;;;;;;7350205;32;20207;-57
2023/10/28 13:28:32;;;;;;;8.55;1.40;;;14.20;99.90;;;;;;7354352;32;20144;-57
2023/10/28 13:32:35;;;;;;;7.97;1.62;;;14.10;99.90;;;;;;7352730;32;20498;-57
2023/10/28 13:36:53;;;;;;;7.20;2.10;;;13.90;99.90;;;;;;7351636;32;20178;-57
2023/10/28 13:40:54;;;;;;;6.78;1.58;;;13.60;99.90;;;;;;7352548;32;20513;-57
2023/10/28 13:44:57;;;;;;;11.27;2.35;;;13.40;99.90;;;;;;7352830;32;20191;-57
2023/10/28 13:48:58;;;;;;;9.00;2.45;;;13.30;99.90;;;;;;7349208;32;20281;-57
2023/10/28 13:53:00;;;;;;;7.85;1.98;;;13.10;99.90;;;;;;7344066;32;20194;-57
2023/10/28 13:57:02;;;;;;;7.12;1.62;;;13.00;99.90;;;;;;7341954;32;20112;-57
2023/10/28 14:01:06;;;;;;;5.22;0.98;;;13.20;99.90;;;;;;7346787;32;20172;-57
2023/10/28 14:05:08;;;;;;;7.25;1.60;;;13.30;99.90;;;;;;7337709;32;20111;-56
2023/10/28 14:09:15;;;;;;;4.93;0.95;;;13.20;99.90;;;;;;7347852;32;20352;-57
2023/10/28 14:13:17;;;;;;;7.00;1.20;;;13.10;99.90;;;;;;7348095;32;20157;-57
2023/10/28 14:17:19;;;;;;;7.05;1.02;;;13.10;99.90;;;;;;7353427;32;20115;-57
2023/10/28 14:21:24;;;;;;;6.95;1.12;;;13.00;99.90;;;;;;7355943;32;20222;-57
2023/10/28 14:25:26;;;;;;;6.62;1.20;;;13.10;99.90;;;;;;7361955;32;20126;-57
2023/10/28 14:29:28;;;;;;;5.57;1.25;;;13.10;99.90;;;;;;7356972;32;20335;-57
2023/10/28 14:33:30;;;;;;;5.53;1.10;;;13.10;99.90;;;;;;7357519;32;20563;-57
2023/10/28 14:37:32;;;;;;;6.72;1.30;;;13.10;99.90;;;;;;7358576;32;20107;-57
2023/10/28 14:41:35;;;;;;;4.82;1.12;;;13.10;99.90;;;;;;7359095;32;20133;-56
2023/10/28 14:45:37;;;;;;;6.53;1.55;;;13.00;99.90;;;;;;7357553;32;20239;-55
2023/10/28 14:49:39;;;;;;;5.75;1.08;;;12.90;99.90;;;;;;7357157;32;20137;-55
2023/10/28 14:53:41;;;;;;;2.90;1.00;;;12.80;99.90;;;;;;7345303;32;20190;-56
2023/10/28 14:57:43;;;;;;;6.93;1.20;;;12.90;99.90;;;;;;7353191;32;20106;-56
2023/10/28 15:02:04;;;;;;;4.22;1.15;;;12.70;99.90;;;;;;7350645;32;20157;-56
2023/10/28 15:06:06;;;;;;;3.62;1.00;;;12.80;99.90;;;;;;7349460;32;20187;-56
2023/10/28 15:10:11;;;;;;;2.62;0.68;;;12.80;99.90;;;;;;7351100;32;20860;-57
2023/10/28 15:14:14;;;;;;;4.45;0.90;;;12.60;99.90;;;;;;7354355;32;20133;-55
2023/10/28 15:18:16;;;;;;;3.62;0.90;;;12.50;99.90;;;;;;7357644;32;20521;-58
2023/10/28 15:22:18;;;;;;;4.12;1.00;;;12.60;99.90;;;;;;7352125;32;20257;-57
2023/10/28 15:26:23;;;;;;;3.05;0.62;;;12.50;99.90;;;;;;7349530;32;20531;-55
2023/10/28 15:30:25;;;;;;;3.87;0.85;;;12.20;99.90;;;;;;7349536;32;20095;-56
2023/10/28 15:34:31;;;;;;;2.95;0.95;;;12.20;99.90;;;;;;7349032;32;20476;-57
2023/10/28 15:38:33;;;;;;;4.50;1.00;;;12.10;99.90;;;;;;7351447;32;20146;-56
2023/10/28 15:42:35;;;;;;;2.30;1.10;;;12.10;99.90;;;;;;7328350;32;20617;-57
2023/10/28 15:46:37;;;;;;;2.40;1.00;;;12.10;99.90;;;;;;7352559;32;20414;-57
2023/10/28 15:50:39;;;;;;;2.65;0.88;;;12.10;99.90;;;;;;7346475;32;20170;-56
2023/10/28 15:54:40;;;;;;;2.62;0.80;;;12.10;99.90;;;;;;7344140;32;20618;-57
2023/10/28 15:58:44;;;;;;;2.83;0.50;;;12.00;99.90;;;;;;7350248;32;20108;-56
2023/10/28 16:02:47;;;;;;;1.52;0.50;;;12.00;99.90;;;;;;7350821;32;20328;-56
2023/10/28 16:06:49;;;;;;;2.28;0.50;;;12.10;99.90;;;;;;7351829;32;20622;-56
2023/10/28 16:10:51;;;;;;;1.98;0.60;;;12.00;99.90;;;;;;7347006;32;20272;-58
2023/10/28 16:14:53;;;;;;;1.00;0.45;;;12.00;99.90;;;;;;7346886;32;20126;-56
2023/10/28 16:18:57;;;;;;;0.70;0.50;;;12.00;99.90;;;;;;7348600;32;20100;-56
2023/10/28 16:22:59;;;;;;;0.70;0.40;;;11.80;99.90;;;;;;7345716;32;20551;-57
2023/10/28 16:27:01;;;;;;;1.73;0.68;;;11.80;99.90;;;;;;7341932;32;20246;-56
2023/10/28 16:31:06;;;;;;;1.17;0.50;;;11.80;99.90;;;;;;7348459;32;20135;-55
2023/10/28 16:35:10;;;;;;;2.57;0.70;;;11.70;99.90;;;;;;7349861;32;20158;-55
2023/10/28 16:39:12;;;;;;;0.90;0.60;;;11.70;99.90;;;;;;7356471;32;20406;-54
2023/10/28 16:43:14;;;;;;;1.58;0.60;;;11.60;99.90;;;;;;7346034;32;20126;-55
2023/10/28 16:47:16;;;;;;;0.80;0.60;;;11.60;99.90;;;;;;7342731;32;20146;-56
2023/10/28 16:51:19;;;;;;;1.60;0.57;;;11.60;99.90;;;;;;7344121;32;20154;-55
2023/10/28 16:55:21;;;;;;;2.35;0.65;;;11.60;99.90;;;;;;7348620;32;20215;-55
2023/10/28 16:59:23;;;;;;;3.60;0.73;;;11.80;99.90;;;;;;7342128;32;20115;-55
2023/10/28 17:03:24;;;;;;;2.33;0.98;;;11.80;99.90;;;;;;7349942;32;20563;-56
2023/10/28 17:07:26;;;;;;;1.70;1.00;;;11.70;99.90;;;;;;7358308;32;20528;-56
2023/10/28 17:11:32;;;;;;;1.95;1.02;;;11.70;99.90;;;;;;7347585;32;20103;-55
2023/10/28 17:15:36;;;;;;;2.35;0.77;;;11.60;99.90;;;;;;7333412;32;20596;-54
2023/10/28 17:19:39;;;;;;;2.90;0.80;;;11.60;99.90;;;;;;7354171;32;20189;-54
2023/10/28 17:23:41;;;;;;;2.67;0.90;;;11.60;99.90;;;;;;7348345;32;20477;-55
2023/10/28 17:27:44;;;;;;;4.60;0.70;;;11.60;99.90;;;;;;7355665;32;20321;-55
2023/10/28 17:31:45;;;;;;;2.95;0.70;;;11.60;99.90;;;;;;7350224;32;20107;-55
2023/10/28 17:35:47;;;;;;;2.08;0.90;;;11.60;99.90;;;;;;7340034;32;20521;-55
2023/10/28 17:39:52;;;;;;;1.65;0.80;;;11.50;99.90;;;;;;7330253;32;20539;-55
2023/10/28 17:43:54;;;;;;;3.08;1.10;;;11.60;99.90;;;;;;7348880;32;20123;-55
2023/10/28 17:47:55;;;;;;;2.12;1.00;;;11.60;99.90;;;;;;7342875;32;20107;-55
2023/10/28 17:51:57;;;;;;;4.85;0.90;;;11.50;99.90;;;;;;7354351;32;20184;-57
2023/10/28 17:55:59;;;;;;;2.58;0.90;;;11.50;99.90;;;;;;7353202;32;20155;-56
2023/10/28 18:00:04;;;;;;;3.75;1.20;;;11.50;99.90;;;;;;7354301;32;20108;-55
2023/10/28 18:04:07;;;;;;;3.65;1.10;;;11.50;99.90;;;;;;7360112;32;20493;-54
2023/10/28 18:08:09;;;;;;;2.37;1.00;;;11.40;99.90;;;;;;7352287;32;20469;-54
2023/10/28 18:12:11;;;;;;;2.72;1.45;;;11.40;99.90;;;;;;7357740;32;20189;-55
2023/10/28 18:16:13;;;;;;;3.65;1.00;;;11.40;99.90;;;;;;7343892;32;20130;-54
2023/10/28 18:20:15;;;;;;;1.55;0.80;;;11.40;99.90;;;;;;7355318;32;20104;-54
2023/10/28 18:24:17;;;;;;;1.95;0.90;;;11.40;99.90;;;;;;7352023;32;20111;-53
2023/10/28 18:28:20;;;;;;;1.95;0.98;;;11.50;99.90;;;;;;7355005;32;20130;-55
2023/10/28 18:32:22;;;;;;;2.05;0.82;;;11.40;99.90;;;;;;7352936;32;20313;-55
2023/10/28 18:36:25;;;;;;;1.27;0.80;;;11.50;99.90;;;;;;7350293;32;20171;-55
2023/10/28 18:40:27;;;;;;;2.40;1.00;;;11.50;99.90;;;;;;7353946;32;20111;-55
2023/10/28 18:44:29;;;;;;;2.58;1.58;;;11.50;99.90;;;;;;7351758;32;20129;-55
2023/10/28 18:48:31;;;;;;;1.40;0.62;;;11.60;99.90;;;;;;7355645;32;20123;-54
2023/10/28 18:52:33;;;;;;;0.90;0.60;;;11.50;99.90;;;;;;7344702;32;20145;-55
2023/10/28 18:56:35;;;;;;;1.23;0.50;;;11.60;99.90;;;;;;7354226;32;20123;-54
2023/10/28 19:00:37;;;;;;;0.93;0.60;;;11.60;99.90;;;;;;7354413;32;20569;-55
2023/10/28 19:04:39;;;;;;;1.60;0.50;;;11.70;99.90;;;;;;7349952;32;20115;-54
2023/10/28 19:08:43;;;;;;;2.17;0.70;;;11.70;99.90;;;;;;7348460;32;23979;-57
2023/10/28 19:12:45;;;;;;;2.58;0.80;;;11.70;99.90;;;;;;7355172;32;20158;-56
2023/10/28 19:16:48;;;;;;;4.37;0.57;;;11.80;99.90;;;;;;7352586;32;20131;-58
2023/10/28 19:20:50;;;;;;;2.30;0.95;;;11.80;99.90;;;;;;7360474;32;20421;-54
2023/10/28 19:24:51;;;;;;;4.93;0.90;;;11.80;99.90;;;;;;7349680;32;20152;-54
2023/10/28 19:28:54;;;;;;;4.45;0.90;;;11.70;99.90;;;;;;7347136;32;20155;-54
2023/10/28 19:32:55;;;;;;;1.70;0.70;;;11.70;99.90;;;;;;7348618;32;20129;-55
2023/10/28 19:36:57;;;;;;;1.90;0.75;;;11.60;99.90;;;;;;7356046;32;20126;-55
2023/10/28 19:40:59;;;;;;;3.28;0.82;;;11.60;99.90;;;;;;7342662;32;20165;-54
2023/10/28 19:45:01;;;;;;;2.33;0.88;;;11.50;99.90;;;;;;7351527;32;20196;-55
2023/10/28 19:49:04;;;;;;;2.33;0.93;;;11.50;99.90;;;;;;7349837;32;20126;-54
2023/10/28 19:53:06;;;;;;;3.00;0.90;;;11.50;99.90;;;;;;7359087;32;20163;-53
2023/10/28 19:57:08;;;;;;;2.97;0.93;;;11.50;99.90;;;;;;7346427;32;20613;-55
2023/10/28 20:01:11;;;;;;;1.40;0.80;;;11.50;99.90;;;;;;7347072;32;20206;-54
2023/10/28 20:05:13;;;;;;;2.72;0.80;;;11.50;99.90;;;;;;7355503;32;20222;-54
2023/10/28 20:09:14;;;;;;;2.22;0.88;;;11.50;99.90;;;;;;7353566;32;20513;-55
2023/10/28 20:13:16;;;;;;;3.78;1.25;;;11.40;99.90;;;;;;7349539;32;20111;-55
2023/10/28 20:17:18;;;;;;;2.37;0.95;;;11.40;99.90;;;;;;7353465;32;20141;-56
2023/10/28 20:21:20;;;;;;;5.28;1.52;;;11.40;99.90;;;;;;7357114;32;20126;-55
2023/10/28 20:25:22;;;;;;;7.10;1.23;;;11.30;99.90;;;;;;7346762;32;20315;-55
2023/10/28 20:29:23;;;;;;;5.12;1.30;;;11.30;99.90;;;;;;7353929;32;20333;-55
2023/10/28 20:33:25;;;;;;;2.37;1.20;;;11.30;99.90;;;;;;7346597;32;20133;-56
2023/10/28 20:37:27;;;;;;;4.18;1.60;;;11.30;99.90;;;;;;7353815;32;20161;-56
2023/10/28 20:41:29;;;;;;;5.12;1.40;;;11.30;99.90;;;;;;7351270;32;20243;-55
2023/10/28 20:45:31;;;;;;;3.87;1.40;;;11.30;99.90;;;;;;7354440;32;20723;-56
2023/10/28 20:49:33;;;;;;;6.35;1.17;;;11.30;99.90;;;;;;7349588;32;20580;-56
2023/10/28 20:53:35;;;;;;;3.97;1.60;;;11.30;99.90;;;;;;7349621;32;20134;-56
2023/10/28 20:57:37;;;;;;;2.95;1.48;;;11.30;99.90;;;;;;7351215;32;20614;-56
2023/10/28 21:01:39;;;;;;;5.00;1.20;;;11.30;99.90;;;;;;7346710;32;20445;-56
2023/10/28 21:05:41;;;;;;;5.32;1.60;;;11.30;99.90;;;;;;7339902;32;20170;-56
2023/10/28 21:09:43;;;;;;;5.87;1.15;;;11.30;99.90;;;;;;7351369;32;20158;-56